Time;durP1;ratioP1;P1;durP2;ratioP2;P2;SDS_P1;SDS_P2;PMS_P1;PMS_P2;Temp;Humidity;BMP_temperature;BMP_pressure;BME280_temperature;BME280_humidity;BME280_pressure;Samples;Min_cycle;Max_cycle;Signal;HPM_P1;HPM_P2
2022/07/18 00:04:27;;;;;;;5.07;1.10;;;;;;;22.89;34.93;101375.69;9918904;29;20233;-85
2022/07/18 00:09:29;;;;;;;2.60;1.10;;;;;;;22.79;36.21;101371.31;9900274;30;20256;-84
2022/07/18 00:14:37;;;;;;;3.42;1.05;;;;;;;22.73;35.96;101371.91;9893062;29;20233;-81
2022/07/18 00:19:39;;;;;;;1.70;0.88;;;;;;;22.64;36.43;101366.34;9907405;30;20209;-82
2022/07/18 00:24:42;;;;;;;2.15;1.02;;;;;;;22.53;37.04;101368.00;9910752;29;20235;-86
2022/07/18 00:29:44;;;;;;;2.53;0.90;;;;;;;22.37;37.70;101367.06;9936660;29;20264;-86
2022/07/18 00:34:46;;;;;;;2.03;0.93;;;;;;;22.46;37.91;101354.34;9906548;30;20214;-86
2022/07/18 00:39:49;;;;;;;1.58;1.02;;;;;;;22.33;37.41;101346.16;9907413;30;20233;-86
2022/07/18 00:44:55;;;;;;;3.90;1.15;;;;;;;22.18;38.19;101345.72;9892133;30;20258;-85
2022/07/18 00:49:57;;;;;;;2.50;1.17;;;;;;;22.25;38.04;101336.56;9891963;30;20649;-84
2022/07/18 00:54:59;;;;;;;3.55;1.15;;;;;;;22.19;37.82;101337.97;9907502;30;20250;-85
2022/07/18 01:05:25;;;;;;;2.28;1.17;;;;;;;22.13;38.94;101328.84;9906103;30;20217;-86
2022/07/18 01:10:27;;;;;;;4.03;1.45;;;;;;;22.16;38.62;101336.69;9891466;30;20221;-80
2022/07/18 01:15:30;;;;;;;2.58;1.77;;;;;;;22.06;39.14;101336.31;9907162;30;20600;-82
2022/07/18 01:20:32;;;;;;;5.32;2.28;;;;;;;22.15;39.04;101349.28;9905523;29;20601;-85
2022/07/18 01:25:35;;;;;;;3.97;2.50;;;;;;;21.99;39.45;101341.78;9906568;29;20298;-84
2022/07/18 01:30:37;;;;;;;10.00;4.53;;;;;;;21.88;39.48;101339.38;9889855;29;20561;-81
2022/07/18 01:35:40;;;;;;;10.82;6.70;;;;;;;21.96;39.59;101348.19;9889998;30;20224;-80
2022/07/18 01:40:42;;;;;;;26.80;17.70;;;;;;;21.70;40.02;101345.63;9890352;30;20231;-80
2022/07/18 01:45:44;;;;;;;21.35;16.42;;;;;;;21.87;40.00;101342.56;9889486;30;20321;-80
2022/07/18 01:50:47;;;;;;;22.50;15.30;;;;;;;21.77;40.41;101346.72;9889637;30;20235;-81
2022/07/18 01:55:49;;;;;;;22.38;15.63;;;;;;;21.75;40.36;101337.69;9904565;30;20222;-81
2022/07/18 02:00:51;;;;;;;22.60;15.90;;;;;;;21.48;41.58;101329.81;9904447;29;20246;-83
2022/07/18 02:05:54;;;;;;;21.52;13.60;;;;;;;21.38;41.90;101330.28;9911199;29;20226;-82
2022/07/18 02:10:57;;;;;;;15.57;11.20;;;;;;;21.10;42.74;101325.16;9910895;29;20197;-82
2022/07/18 02:16:00;;;;;;;18.90;10.60;;;;;;;20.98;42.39;101319.44;9910937;29;20262;-81
2022/07/18 02:21:03;;;;;;;14.05;9.73;;;;;;;21.44;41.46;101326.00;9895992;30;20472;-81
2022/07/18 02:26:06;;;;;;;17.23;10.43;;;;;;;21.24;41.83;101324.06;9881306;30;20707;-82
2022/07/18 02:31:09;;;;;;;17.35;9.80;;;;;;;21.24;42.26;101315.53;9910084;29;20577;-82
2022/07/18 02:36:11;;;;;;;16.15;10.05;;;;;;;21.40;41.81;101313.69;9910170;29;20194;-82
2022/07/18 02:41:13;;;;;;;13.45;8.88;;;;;;;21.30;41.71;101320.63;9911172;30;20223;-81
2022/07/18 02:46:15;;;;;;;10.95;7.78;;;;;;;21.11;42.45;101324.00;9894597;30;20298;-81
2022/07/18 02:51:18;;;;;;;16.05;9.82;;;;;;;21.12;42.52;101313.44;9895261;30;20209;-81
2022/07/18 02:56:20;;;;;;;17.25;10.50;;;;;;;21.16;42.13;101315.22;9909903;30;20500;-81
2022/07/18 03:01:22;;;;;;;17.23;10.63;;;;;;;21.21;42.33;101317.84;9895147;30;20269;-80
2022/07/18 03:06:25;;;;;;;16.55;10.68;;;;;;;21.07;42.67;101320.16;9921852;29;20256;-80
2022/07/18 03:11:27;;;;;;;16.20;9.60;;;;;;;20.64;43.95;101317.69;9914352;29;20225;-82
2022/07/18 03:16:29;;;;;;;17.27;10.70;;;;;;;21.02;42.69;101314.69;9901368;29;20286;-82
2022/07/18 03:21:32;;;;;;;14.60;10.45;;;;;;;21.11;42.69;101306.09;9920000;29;20241;-83
2022/07/18 03:26:35;;;;;;;12.13;9.68;;;;;;;21.11;42.98;101306.91;9926456;29;20291;-82
2022/07/18 03:31:37;;;;;;;12.52;9.15;;;;;;;20.91;43.55;101313.47;9872946;29;20659;-83
2022/07/18 03:36:40;;;;;;;12.98;9.38;;;;;;;20.85;43.65;101306.34;9902735;30;20219;-82
2022/07/18 03:41:42;;;;;;;14.60;9.00;;;;;;;20.77;43.68;101305.22;9873247;30;20550;-84
2022/07/18 03:46:44;;;;;;;12.82;8.77;;;;;;;20.69;44.48;101306.13;9888139;29;20333;-83
2022/07/18 03:51:47;;;;;;;10.93;8.68;;;;;;;20.67;44.11;101297.13;9880027;30;20235;-81
2022/07/18 03:56:50;;;;;;;15.95;9.07;;;;;;;20.59;44.88;101309.41;9909908;30;20247;-83
2022/07/18 04:01:52;;;;;;;11.45;8.73;;;;;;;20.75;44.07;101303.94;9879898;30;20206;-82
2022/07/18 04:06:58;;;;;;;11.23;8.00;;;;;;;20.75;44.26;101304.75;9894141;30;20216;-83
2022/07/18 04:12:01;;;;;;;9.52;7.40;;;;;;;20.64;44.26;101308.34;9909638;30;20205;-82
2022/07/18 04:17:03;;;;;;;10.50;7.05;;;;;;;20.91;43.30;101306.94;9878789;30;20194;-82
2022/07/18 04:22:06;;;;;;;9.73;7.38;;;;;;;20.75;44.70;101313.28;9893886;30;20282;-83
2022/07/18 04:27:08;;;;;;;12.57;6.05;;;;;;;20.49;45.79;101304.94;9903966;29;20265;-82
2022/07/18 04:32:11;;;;;;;7.03;5.13;;;;;;;20.39;44.94;101311.00;9909045;29;20237;-82
2022/07/18 04:37:13;;;;;;;7.75;4.95;;;;;;;20.91;44.93;101302.09;9878520;30;20198;-79
2022/07/18 04:42:15;;;;;;;5.28;4.78;;;;;;;20.56;45.93;101314.94;9907528;29;20759;-79
2022/07/18 04:47:17;;;;;;;5.67;4.73;;;;;;;20.57;45.61;101305.22;9900286;30;20309;-78
2022/07/18 04:52:20;;;;;;;7.65;4.60;;;;;;;20.68;46.01;101301.63;9899011;30;20670;-78
2022/07/18 04:57:22;;;;;;;4.80;3.58;;;;;;;21.00;44.66;101299.19;9908628;30;20205;-78
2022/07/18 05:02:25;;;;;;;7.57;3.03;;;;;;;20.90;45.36;101303.25;9914142;29;20500;-79
2022/07/18 05:07:27;;;;;;;12.75;3.35;;;;;;;20.99;45.54;101304.03;9898406;30;20282;-79
2022/07/18 05:12:29;;;;;;;9.93;3.58;;;;;;;20.49;44.69;101302.09;9898211;30;20213;-79
2022/07/18 05:17:32;;;;;;;13.75;3.83;;;;;;;21.34;44.61;101303.69;9927749;29;20461;-79
2022/07/18 05:22:35;;;;;;;8.40;3.25;;;;;;;21.37;43.90;101303.84;9901358;29;20209;-78
2022/07/18 05:27:38;;;;;;;5.40;2.83;;;;;;;21.25;44.52;101294.44;9913509;29;20250;-78
2022/07/18 05:32:41;;;;;;;4.57;2.05;;;;;;;21.46;43.83;101296.03;9917376;29;20301;-79
2022/07/18 05:37:43;;;;;;;5.90;2.40;;;;;;;21.47;45.28;101291.16;9922873;29;20499;-79
2022/07/18 05:42:46;;;;;;;4.43;2.20;;;;;;;21.65;44.48;101289.78;9928346;29;20492;-82
2022/07/18 05:47:57;;;;;;;4.57;2.13;;;;;;;21.76;44.32;101276.72;9907128;29;20269;-82
2022/07/18 05:52:59;;;;;;;4.28;1.50;;;;;;;21.92;43.64;101269.16;9896095;29;20209;-83
2022/07/18 05:58:01;;;;;;;3.40;1.58;;;;;;;21.97;44.57;101275.78;9909334;29;20250;-83
2022/07/18 06:03:04;;;;;;;4.32;2.30;;;;;;;22.25;42.66;101259.63;9932318;29;20255;-82
2022/07/18 06:08:06;;;;;;;5.13;1.67;;;;;;;22.60;41.07;101263.56;9918294;29;20637;-81
2022/07/18 06:13:08;;;;;;;6.03;1.55;;;;;;;22.97;37.53;101252.03;9931698;29;20213;-82
2022/07/18 06:18:11;;;;;;;6.53;1.40;;;;;;;22.80;37.90;101252.38;9882798;29;20717;-82
2022/07/18 06:23:13;;;;;;;6.43;1.67;;;;;;;23.15;37.56;101247.66;9933219;29;20242;-82
2022/07/18 06:28:16;;;;;;;8.85;1.27;;;;;;;23.31;37.36;101247.72;9937655;29;20632;-82
2022/07/18 06:33:18;;;;;;;4.10;1.30;;;;;;;23.28;35.21;101252.13;9923610;29;20237;-82
2022/07/18 06:38:20;;;;;;;2.40;0.77;;;;;;;23.85;34.43;101253.63;9899291;29;20554;-82
2022/07/18 06:43:22;;;;;;;5.20;0.77;;;;;;;24.09;33.89;101234.63;9919175;29;20197;-82
2022/07/18 06:48:25;;;;;;;3.85;0.80;;;;;;;23.88;33.32;101240.59;9900467;29;20322;-82
2022/07/18 06:53:27;;;;;;;4.80;0.82;;;;;;;24.48;32.38;101252.66;9907767;29;20493;-82
2022/07/18 06:58:30;;;;;;;2.45;1.10;;;;;;;24.65;31.83;101252.25;9896944;29;20240;-82
2022/07/18 07:03:33;;;;;;;4.05;0.70;;;;;;;24.64;31.41;101245.72;9908957;29;20286;-82
2022/07/18 07:08:35;;;;;;;5.30;1.00;;;;;;;24.94;31.00;101243.03;9905454;29;20243;-82
2022/07/18 07:13:37;;;;;;;2.40;0.80;;;;;;;25.37;30.72;101227.56;9909709;29;20204;-82
2022/07/18 07:18:40;;;;;;;3.58;0.90;;;;;;;25.49;30.68;101231.44;9944052;29;20201;-82
2022/07/18 07:23:42;;;;;;;2.42;0.70;;;;;;;25.65;29.82;101220.66;9916815;29;20295;-82
2022/07/18 07:28:45;;;;;;;7.75;1.15;;;;;;;25.74;30.11;101219.19;9942104;29;20225;-82
2022/07/18 07:33:47;;;;;;;4.72;0.95;;;;;;;25.69;29.97;101221.56;9917430;30;20225;-82
2022/07/18 07:38:51;;;;;;;4.15;0.80;;;;;;;26.40;29.71;101199.75;9876066;29;20208;-82
2022/07/18 07:43:53;;;;;;;4.13;0.90;;;;;;;26.72;29.64;101203.03;9921014;29;20197;-82
2022/07/18 07:48:55;;;;;;;2.60;0.65;;;;;;;26.90;28.97;101203.22;9947555;29;20234;-83
2022/07/18 07:53:58;;;;;;;3.33;0.65;;;;;;;27.15;28.88;101195.72;9918471;29;20213;-83
2022/07/18 07:59:01;;;;;;;2.30;0.70;;;;;;;27.72;28.33;101191.34;9897719;29;20607;-84
2022/07/18 08:04:03;;;;;;;5.00;1.00;;;;;;;27.91;28.25;101188.19;9951735;29;20205;-84
2022/07/18 08:09:08;;;;;;;3.20;0.90;;;;;;;27.86;27.43;101190.63;9911033;29;20257;-84
2022/07/18 08:14:10;;;;;;;1.63;0.47;;;;;;;28.08;26.79;101192.41;9915435;29;20209;-84
2022/07/18 08:19:12;;;;;;;5.10;0.82;;;;;;;28.53;26.62;101185.31;9894003;29;20225;-84
2022/07/18 08:24:15;;;;;;;1.88;0.75;;;;;;;28.80;25.65;101182.97;9926148;29;20209;-84
2022/07/18 08:29:17;;;;;;;3.38;0.60;;;;;;;28.88;25.62;101181.75;9922502;29;20259;-82
2022/07/18 08:34:19;;;;;;;3.60;0.75;;;;;;;29.00;24.85;101174.78;9891875;29;20305;-83
2022/07/18 08:39:22;;;;;;;2.47;0.50;;;;;;;29.27;25.18;101166.63;9933187;29;20232;-83
2022/07/18 08:44:24;;;;;;;3.72;0.70;;;;;;;29.31;24.14;101155.91;9890220;29;20271;-83
2022/07/18 08:49:27;;;;;;;1.45;0.60;;;;;;;29.51;23.77;101160.03;9905449;29;20274;-86
2022/07/18 08:54:29;;;;;;;2.47;0.35;;;;;;;29.60;23.44;101162.47;9935252;29;20258;-84
2022/07/18 08:59:31;;;;;;;5.05;0.60;;;;;;;29.85;22.46;101168.25;9891236;29;20865;-84
2022/07/18 09:04:35;;;;;;;2.33;0.43;;;;;;;29.64;23.29;101172.78;9914281;29;20213;-81
2022/07/18 09:09:38;;;;;;;4.30;0.63;;;;;;;30.25;22.65;101156.22;9919600;29;20331;-84
2022/07/18 09:14:44;;;;;;;1.42;0.77;;;;;;;30.04;23.25;101150.50;9935925;29;20253;-83
2022/07/18 09:19:56;;;;;;;3.15;0.60;;;;;;;30.48;21.91;101155.75;9909622;29;20201;-83
2022/07/18 09:25:01;;;;;;;1.38;0.50;;;;;;;30.49;21.13;101151.63;9934173;29;20205;-84
2022/07/18 09:30:21;;;;;;;1.70;0.55;;;;;;;30.58;21.12;101151.97;9933369;29;20707;-84
2022/07/18 09:35:29;;;;;;;1.08;0.70;;;;;;;30.94;22.92;101155.50;9896533;29;20789;-80
2022/07/18 09:40:33;;;;;;;3.53;0.70;;;;;;;30.97;21.05;101166.22;9911049;29;20202;-83
2022/07/18 09:45:44;;;;;;;0.52;0.30;;;;;;;30.97;20.47;101143.09;9921703;29;20232;-82
2022/07/18 09:50:58;;;;;;;2.25;0.70;;;;;;;31.30;19.86;101149.50;9918212;29;20248;-82
2022/07/18 09:56:06;;;;;;;1.52;0.60;;;;;;;30.93;19.90;101136.53;9912203;30;20201;-84
2022/07/18 10:01:10;;;;;;;1.75;0.93;;;;;;;31.25;18.99;101141.25;9895520;30;20209;-81
2022/07/18 10:06:12;;;;;;;4.22;0.85;;;;;;;31.54;19.11;101136.06;9896236;30;20198;-82
2022/07/18 10:11:14;;;;;;;2.63;0.68;;;;;;;31.26;19.76;101140.00;9896091;30;20358;-81
2022/07/18 10:16:17;;;;;;;1.08;0.88;;;;;;;31.16;19.50;101138.81;9877553;29;20298;-81
2022/07/18 10:21:20;;;;;;;1.52;0.80;;;;;;;31.99;18.74;101134.81;9931834;29;20230;-82
2022/07/18 10:26:27;;;;;;;2.22;0.88;;;;;;;32.16;19.78;101127.19;9919373;29;20246;-81
2022/07/18 10:31:34;;;;;;;4.70;1.60;;;;;;;31.62;20.24;101135.59;9900341;29;20273;-80
2022/07/18 10:36:51;;;;;;;4.28;1.00;;;;;;;32.05;19.33;101133.09;9928084;29;20241;-80
2022/07/18 10:42:01;;;;;;;2.80;1.00;;;;;;;32.63;19.40;101139.00;9923703;29;20262;-82
2022/07/18 10:47:03;;;;;;;4.32;0.80;;;;;;;32.51;18.68;101125.09;9895808;29;20212;-83
2022/07/18 10:52:05;;;;;;;3.28;0.77;;;;;;;31.70;19.14;101134.25;9940125;29;20652;-83
2022/07/18 10:57:09;;;;;;;3.92;1.02;;;;;;;31.82;18.56;101123.41;9916809;29;20619;-82
2022/07/18 11:02:12;;;;;;;1.95;1.50;;;;;;;33.11;17.52;101125.03;9908169;29;20346;-82
2022/07/18 11:07:15;;;;;;;2.58;0.98;;;;;;;32.36;18.04;101122.41;9907467;29;20667;-82
2022/07/18 11:12:25;;;;;;;2.20;1.10;;;;;;;32.99;17.79;101122.75;9932383;29;20278;-82
2022/07/18 11:17:56;;;;;;;3.67;0.82;;;;;;;33.53;16.87;101116.91;9900032;29;20584;-81
2022/07/18 11:23:13;;;;;;;2.33;1.13;;;;;;;32.78;17.38;101109.44;9935549;29;20642;-82
2022/07/18 11:28:16;;;;;;;1.70;0.90;;;;;;;33.54;17.04;101085.81;9930419;29;20695;-82
2022/07/18 11:33:28;;;;;;;4.45;1.13;;;;;;;33.21;18.00;101099.25;9908287;29;20237;-82
2022/07/18 11:38:30;;;;;;;1.13;1.00;;;;;;;33.64;16.92;101090.59;9887153;29;20241;-84
2022/07/18 11:43:33;;;;;;;2.42;1.02;;;;;;;33.80;16.42;101079.13;9872704;30;20258;-82
2022/07/18 11:48:37;;;;;;;2.45;0.93;;;;;;;33.77;16.64;101069.22;9901768;30;20262;-81
2022/07/18 11:53:57;;;;;;;2.13;0.80;;;;;;;33.74;16.58;101069.31;9889681;29;20236;-82
2022/07/18 11:59:00;;;;;;;2.63;0.93;;;;;;;33.87;16.87;101066.56;9877897;30;20624;-82
2022/07/18 12:04:02;;;;;;;3.40;0.82;;;;;;;34.36;16.81;101073.44;9871985;30;20278;-82
2022/07/18 12:09:06;;;;;;;2.50;0.90;;;;;;;34.31;16.71;101065.22;9891594;29;20730;-83
2022/07/18 12:14:08;;;;;;;2.08;0.93;;;;;;;34.36;17.27;101070.53;9868370;29;20261;-81
2022/07/18 12:19:24;;;;;;;1.85;0.90;;;;;;;34.49;16.32;101054.88;9904399;29;20773;-82
2022/07/18 12:24:26;;;;;;;2.85;0.85;;;;;;;34.50;16.64;101041.97;9910068;29;20588;-82
2022/07/18 12:29:53;;;;;;;3.55;0.68;;;;;;;34.50;16.61;101041.97;9905548;29;20321;-82
2022/07/18 12:35:07;;;;;;;2.42;0.60;;;;;;;34.67;16.26;101039.13;9895072;29;20298;-82
2022/07/18 12:40:11;;;;;;;2.33;0.75;;;;;;;34.71;16.85;101040.66;9911972;29;20286;-82
2022/07/18 12:45:27;;;;;;;1.23;0.82;;;;;;;34.20;16.66;101036.44;9910479;29;20251;-81
2022/07/18 12:50:29;;;;;;;1.15;0.70;;;;;;;34.88;16.08;101026.97;9908708;29;20327;-82
2022/07/18 12:55:32;;;;;;;1.55;0.63;;;;;;;34.60;18.16;101022.66;9912415;29;20634;-82
2022/07/18 13:00:34;;;;;;;2.45;0.60;;;;;;;35.40;17.21;101028.97;9904874;29;20562;-81
2022/07/18 13:05:36;;;;;;;2.08;0.70;;;;;;;35.44;16.02;101015.94;9917349;29;20237;-81
2022/07/18 13:10:40;;;;;;;7.57;0.85;;;;;;;34.80;16.67;101013.88;9894492;29;20317;-81
2022/07/18 13:15:42;;;;;;;4.40;0.85;;;;;;;33.17;17.92;101007.34;9914229;29;20240;-81
2022/07/18 13:20:45;;;;;;;1.23;0.93;;;;;;;34.46;17.43;100991.84;9906020;29;20254;-82
2022/07/18 13:25:47;;;;;;;2.45;0.70;;;;;;;34.18;17.29;100998.31;9895449;29;20301;-82
2022/07/18 13:30:49;;;;;;;1.58;0.50;;;;;;;34.00;16.70;100989.19;9912617;29;20264;-82
2022/07/18 13:35:51;;;;;;;3.45;0.80;;;;;;;34.33;18.56;100990.94;9943759;29;20277;-80
2022/07/18 13:40:54;;;;;;;2.63;0.90;;;;;;;34.55;16.93;100980.44;9895115;30;20233;-82
2022/07/18 13:45:56;;;;;;;5.72;0.90;;;;;;;34.66;17.30;100980.19;9868483;30;20238;-81
2022/07/18 13:50:58;;;;;;;5.38;1.13;;;;;;;34.61;17.97;100982.81;9871976;30;20261;-81
2022/07/18 13:56:01;;;;;;;4.80;0.88;;;;;;;34.76;17.06;100972.50;9908831;29;20201;-81
2022/07/18 14:01:03;;;;;;;2.17;0.90;;;;;;;34.49;17.03;100964.81;9906833;29;20214;-80
2022/07/18 14:06:05;;;;;;;3.45;1.00;;;;;;;34.42;17.26;100979.50;9917342;29;20205;-82
2022/07/18 14:11:08;;;;;;;2.30;0.95;;;;;;;34.72;17.40;100975.47;9908530;29;20649;-82
2022/07/18 14:16:10;;;;;;;2.40;0.70;;;;;;;33.18;17.86;100979.19;9910728;29;20266;-82
2022/07/18 14:21:12;;;;;;;2.30;1.00;;;;;;;33.91;17.30;100974.44;9907583;29;20496;-83
2022/07/18 14:26:19;;;;;;;2.72;1.17;;;;;;;34.53;17.30;100962.63;9908515;29;20209;-82
2022/07/18 14:31:21;;;;;;;4.80;1.80;;;;;;;34.39;17.79;100959.28;9932134;29;20587;-82
2022/07/18 14:36:23;;;;;;;4.40;1.15;;;;;;;34.59;17.18;100957.09;9916301;29;20209;-83
2022/07/18 14:41:26;;;;;;;2.63;0.80;;;;;;;35.07;16.78;100965.00;9926924;29;20227;-83
2022/07/18 14:46:28;;;;;;;4.63;0.70;;;;;;;34.59;17.87;100956.28;9894552;29;20197;-81
2022/07/18 14:51:31;;;;;;;4.15;0.90;;;;;;;34.56;17.64;100950.09;9920840;29;20289;-81
2022/07/18 14:56:34;;;;;;;6.93;1.35;;;;;;;34.29;17.25;100945.81;9925227;29;20210;-81
2022/07/18 15:01:36;;;;;;;4.25;0.90;;;;;;;34.25;17.87;100937.22;9897286;29;20212;-81
2022/07/18 15:06:40;;;;;;;2.10;0.80;;;;;;;33.20;18.05;100947.69;9881625;29;20205;-81
2022/07/18 15:11:43;;;;;;;3.88;1.08;;;;;;;34.25;17.02;100943.00;9894054;29;20634;-82
2022/07/18 15:16:46;;;;;;;4.50;0.70;;;;;;;33.90;17.25;100943.78;9906965;29;20201;-81
2022/07/18 15:21:52;;;;;;;2.85;0.70;;;;;;;34.02;17.61;100941.00;9921240;29;20672;-81
2022/07/18 15:26:54;;;;;;;2.35;0.70;;;;;;;34.27;16.75;100933.81;9920954;29;20642;-81
2022/07/18 15:31:59;;;;;;;3.67;0.60;;;;;;;34.75;16.18;100928.09;9912043;29;20232;-81
2022/07/18 15:37:02;;;;;;;1.15;0.50;;;;;;;34.64;16.92;100923.81;9915111;29;20622;-81
2022/07/18 15:42:08;;;;;;;1.77;0.75;;;;;;;33.78;17.36;100922.91;9906231;29;20278;-81
2022/07/18 15:47:10;;;;;;;1.58;0.68;;;;;;;34.00;16.88;100913.72;9923347;29;20750;-81
2022/07/18 15:52:13;;;;;;;3.83;1.17;;;;;;;34.14;17.68;100908.38;9913213;29;20636;-81
2022/07/18 15:57:15;;;;;;;2.65;0.68;;;;;;;33.32;17.81;100915.16;9913148;29;20258;-81
2022/07/18 16:02:17;;;;;;;2.58;1.00;;;;;;;33.66;17.47;100900.34;9917901;29;20225;-81
2022/07/18 16:07:19;;;;;;;2.20;0.80;;;;;;;33.59;17.15;100893.91;9914797;29;20480;-81
2022/07/18 16:12:25;;;;;;;3.67;0.73;;;;;;;34.04;17.26;100894.13;9911216;29;20290;-84
2022/07/18 16:17:30;;;;;;;1.63;0.80;;;;;;;33.99;18.12;100888.88;9900126;30;20201;-82
2022/07/18 16:22:33;;;;;;;2.95;0.77;;;;;;;33.93;17.47;100888.56;9899292;30;20198;-82
2022/07/18 16:27:35;;;;;;;1.67;0.77;;;;;;;34.11;16.86;100880.28;9920278;29;20568;-82
2022/07/18 16:32:38;;;;;;;3.63;0.70;;;;;;;33.83;17.09;100875.13;9922020;29;20228;-82
2022/07/18 16:37:40;;;;;;;4.53;0.95;;;;;;;33.71;18.94;100875.84;9927616;29;20257;-81
2022/07/18 16:42:43;;;;;;;3.08;0.95;;;;;;;33.13;18.27;100867.47;9878461;30;20194;-81
2022/07/18 16:47:49;;;;;;;4.85;0.85;;;;;;;33.63;17.77;100866.44;9900399;29;20263;-82
2022/07/18 16:52:55;;;;;;;1.48;1.00;;;;;;;33.84;17.83;100859.38;9911157;29;20257;-81
2022/07/18 16:57:58;;;;;;;5.82;0.88;;;;;;;33.34;18.58;100850.94;9895205;29;20278;-82
2022/07/18 17:03:01;;;;;;;6.85;1.35;;;;;;;33.71;18.30;100853.44;9896123;30;20193;-82
2022/07/18 17:08:04;;;;;;;2.72;0.90;;;;;;;33.44;18.08;100844.91;9875756;29;20591;-81
2022/07/18 17:13:07;;;;;;;1.95;0.82;;;;;;;33.59;17.39;100848.31;9919565;29;20229;-81
2022/07/18 17:18:14;;;;;;;3.05;0.70;;;;;;;33.48;18.97;100847.72;9904200;29;20311;-81
2022/07/18 17:23:17;;;;;;;6.22;0.93;;;;;;;33.14;18.38;100850.91;9892327;29;20201;-82
2022/07/18 17:28:20;;;;;;;2.75;1.10;;;;;;;33.54;18.97;100840.13;9918657;29;20670;-81
2022/07/18 17:33:22;;;;;;;1.55;0.80;;;;;;;33.50;18.12;100846.00;9917141;29;20233;-81
2022/07/18 17:38:34;;;;;;;3.80;0.80;;;;;;;33.55;17.57;100847.56;9910722;29;20230;-81
2022/07/18 17:43:39;;;;;;;2.15;0.80;;;;;;;33.47;18.32;100846.09;9895206;29;20205;-81
2022/07/18 17:48:43;;;;;;;4.25;1.10;;;;;;;33.36;18.35;100839.69;9916280;29;20201;-81
2022/07/18 17:53:45;;;;;;;3.47;0.98;;;;;;;33.41;18.60;100833.38;9940899;29;20221;-81
2022/07/18 17:58:53;;;;;;;3.10;0.93;;;;;;;33.24;18.25;100837.47;9942105;29;20205;-81
2022/07/18 18:03:56;;;;;;;2.28;0.82;;;;;;;33.05;18.97;100837.00;9929614;29;20258;-82
2022/07/18 18:08:58;;;;;;;2.08;0.90;;;;;;;33.44;18.18;100829.59;9896221;29;20209;-82
2022/07/18 18:14:01;;;;;;;3.38;0.93;;;;;;;33.25;18.72;100830.41;9924539;29;20229;-82
2022/07/18 18:19:03;;;;;;;1.98;1.00;;;;;;;32.88;19.03;100834.47;9937218;29;20214;-81
2022/07/18 18:24:05;;;;;;;3.55;1.38;;;;;;;32.70;19.55;100841.41;9915797;29;20674;-81
2022/07/18 18:29:09;;;;;;;2.95;0.80;;;;;;;32.66;20.09;100834.03;9913434;29;20255;-81
2022/07/18 18:34:18;;;;;;;4.25;1.10;;;;;;;32.58;20.72;100839.13;9910194;30;20252;-82
2022/07/18 18:39:26;;;;;;;3.63;1.50;;;;;;;32.46;21.34;100831.88;9907748;29;20213;-81
2022/07/18 18:44:29;;;;;;;1.95;1.60;;;;;;;32.38;22.17;100835.38;9934891;29;20661;-81
2022/07/18 18:49:32;;;;;;;4.07;1.65;;;;;;;32.13;22.84;100834.94;9913564;29;20205;-81
2022/07/18 18:54:34;;;;;;;4.38;1.17;;;;;;;31.74;24.29;100842.94;9928574;29;20269;-81
2022/07/18 18:59:36;;;;;;;3.55;1.17;;;;;;;31.58;24.52;100842.75;9889518;29;20201;-81
2022/07/18 19:04:39;;;;;;;2.95;1.20;;;;;;;30.98;24.85;100844.34;9920997;29;20205;-82
2022/07/18 19:09:43;;;;;;;34.83;21.73;;;;;;;30.55;26.76;100848.88;9913839;29;20237;-82
2022/07/18 19:14:46;;;;;;;19.98;12.75;;;;;;;30.38;26.79;100844.91;9909829;29;20603;-82
2022/07/18 19:19:48;;;;;;;21.23;11.43;;;;;;;30.15;28.76;100850.44;9924535;29;20257;-81
2022/07/18 19:24:50;;;;;;;7.50;4.10;;;;;;;30.06;28.11;100850.94;9954779;29;20587;-81
2022/07/18 19:29:53;;;;;;;6.15;2.60;;;;;;;29.91;28.71;100850.22;9944838;29;20216;-81
2022/07/18 19:34:55;;;;;;;11.95;7.47;;;;;;;29.68;29.55;100844.16;9953162;29;20228;-81
2022/07/18 19:39:58;;;;;;;12.57;5.30;;;;;;;29.38;31.06;100841.84;9955111;29;20197;-81
2022/07/18 19:45:00;;;;;;;9.93;7.63;;;;;;;29.23;31.24;100846.03;9923014;29;20205;-81
2022/07/18 19:50:05;;;;;;;13.68;7.78;;;;;;;29.07;31.47;100851.41;9920506;29;20209;-82
2022/07/18 19:55:07;;;;;;;4.88;2.40;;;;;;;29.17;31.04;100856.31;9945536;29;20201;-81
2022/07/18 20:00:10;;;;;;;9.10;2.80;;;;;;;29.31;31.09;100856.28;9926166;29;20200;-82
2022/07/18 20:05:13;;;;;;;5.25;2.30;;;;;;;28.95;30.74;100855.53;9893739;30;20488;-81
2022/07/18 20:10:15;;;;;;;6.72;2.25;;;;;;;28.49;32.66;100855.63;9922218;29;20273;-81
2022/07/18 20:15:18;;;;;;;6.65;2.53;;;;;;;28.48;31.95;100859.72;9939601;29;20208;-81
2022/07/18 20:20:21;;;;;;;5.88;2.65;;;;;;;28.24;33.01;100865.06;9922453;29;20223;-81
2022/07/18 20:25:24;;;;;;;4.43;2.40;;;;;;;28.45;31.83;100858.47;9946235;29;20565;-81
2022/07/18 20:30:26;;;;;;;6.90;2.58;;;;;;;28.52;32.65;100867.13;9913543;29;20274;-81
2022/07/18 20:35:29;;;;;;;6.65;2.20;;;;;;;28.14;33.36;100863.03;9902414;29;20463;-81
2022/07/18 20:40:31;;;;;;;3.88;2.22;;;;;;;27.92;34.80;100876.50;9935240;29;20246;-81
2022/07/18 20:45:34;;;;;;;2.67;1.90;;;;;;;27.84;34.54;100871.16;9899844;30;20190;-81
2022/07/18 20:50:38;;;;;;;4.97;2.40;;;;;;;27.73;34.34;100870.31;9915539;30;20205;-81
2022/07/18 20:55:41;;;;;;;6.25;2.47;;;;;;;27.45;34.84;100866.09;9899448;30;20201;-81
2022/07/18 21:00:46;;;;;;;6.20;2.55;;;;;;;27.51;35.12;100870.19;9914032;29;20185;-82
2022/07/18 21:05:48;;;;;;;7.28;2.33;;;;;;;27.31;35.76;100871.78;9924450;29;20230;-81
2022/07/18 21:10:50;;;;;;;4.82;2.20;;;;;;;27.10;36.12;100865.94;9932616;29;20715;-81
2022/07/18 21:15:53;;;;;;;4.22;2.10;;;;;;;27.18;36.75;100870.47;9950715;29;20197;-82
2022/07/18 21:20:58;;;;;;;6.80;2.50;;;;;;;27.28;36.58;100872.56;9954148;29;20269;-81
2022/07/18 21:26:00;;;;;;;3.72;2.13;;;;;;;26.94;36.97;100869.09;9930482;29;20234;-81
2022/07/18 21:31:03;;;;;;;3.60;2.03;;;;;;;26.97;36.74;100867.50;9912544;29;20575;-81
2022/07/18 21:36:05;;;;;;;4.43;1.80;;;;;;;27.39;35.02;100861.94;9898115;30;20284;-81
2022/07/18 21:41:08;;;;;;;4.03;1.80;;;;;;;27.02;37.21;100876.53;9882586;29;20271;-81
2022/07/18 21:46:11;;;;;;;5.15;1.88;;;;;;;26.62;37.45;100874.59;9913420;30;20197;-81
2022/07/18 21:51:13;;;;;;;3.78;1.80;;;;;;;26.77;37.28;100873.50;9896454;29;20225;-81
2022/07/18 21:56:15;;;;;;;6.15;1.90;;;;;;;26.46;37.02;100876.97;9901684;29;20201;-81
2022/07/18 22:01:18;;;;;;;2.33;1.52;;;;;;;26.65;36.69;100879.56;9917511;29;20286;-81
2022/07/18 22:06:21;;;;;;;7.68;1.50;;;;;;;26.48;36.40;100871.63;9916404;29;20209;-81
2022/07/18 22:11:29;;;;;;;4.28;1.90;;;;;;;26.81;35.04;100871.47;9911191;30;20225;-81
2022/07/18 22:16:32;;;;;;;5.10;1.88;;;;;;;26.64;34.36;100871.34;9912395;30;20193;-81
2022/07/18 22:21:35;;;;;;;6.43;1.70;;;;;;;26.96;34.13;100865.81;9896197;30;20238;-81
2022/07/18 22:26:37;;;;;;;3.28;1.95;;;;;;;26.17;36.79;100869.31;9911132;30;20205;-81
2022/07/18 22:31:40;;;;;;;6.47;2.03;;;;;;;26.13;36.42;100875.00;9895922;29;20293;-81
2022/07/18 22:36:42;;;;;;;6.00;1.90;;;;;;;26.33;36.19;100870.69;9910595;29;20262;-81
2022/07/18 22:41:45;;;;;;;3.85;2.05;;;;;;;26.32;36.93;100871.09;9928836;29;20278;-81
2022/07/18 22:46:47;;;;;;;4.63;2.05;;;;;;;26.16;36.92;100868.47;9921704;29;20208;-81
2022/07/18 22:51:50;;;;;;;3.35;1.77;;;;;;;25.89;37.93;100859.22;9935363;29;20233;-81
2022/07/18 22:56:52;;;;;;;4.30;1.90;;;;;;;25.65;38.10;100863.44;9894497;30;20599;-80
2022/07/18 23:01:54;;;;;;;6.88;2.55;;;;;;;25.65;37.67;100865.47;9895542;30;20481;-81
2022/07/18 23:06:57;;;;;;;3.85;2.15;;;;;;;25.43;38.48;100858.69;9910898;30;20214;-81
2022/07/18 23:11:59;;;;;;;4.93;2.13;;;;;;;25.61;38.08;100859.69;9895140;30;20528;-80
2022/07/18 23:17:03;;;;;;;3.33;2.03;;;;;;;25.59;38.07;100861.31;9894974;30;20485;-81
2022/07/18 23:22:05;;;;;;;4.10;2.17;;;;;;;25.58;37.56;100860.47;9880075;30;20238;-81
2022/07/18 23:27:07;;;;;;;5.90;1.95;;;;;;;25.71;36.41;100847.53;9910737;30;20246;-81
2022/07/18 23:32:10;;;;;;;4.47;2.13;;;;;;;25.45;36.53;100854.19;9894486;30;20570;-80
2022/07/18 23:37:13;;;;;;;8.52;2.65;;;;;;;25.47;36.07;100847.25;9909622;30;20259;-81